首页
METAR-TAF:

METAR-TAF

机场 :

昂热, 法国

纬度: 47-33-37N, 经度: 000-18-44W, 海拔: 59米

当前天气观测

该预报发布于42分钟前的07:30 UTC
风速2节,风向东转东北
温度 6°C
湿度 100%
气压 1009 hPa
能見度: 5000
多云层高于200英尺
阴天层高于3900英尺
轻雾

METAR: LFJR 170730Z AUTO 06002KT 5000 BR BKN002 OVC039 06/06 Q1009

时间: 09:12 (08:12 UTC)


TAF: 丢失

超过4000个机场的气象观测和天气预报(METAR&TAF报告)。

可查询的气象台以黄色和红色小点在地图上表示。

将鼠标移到小点上方,可查看气象台名称。

然后点击查看天气观测和预报。

如需切换地图:点击带黑十字的绿色按钮放大地图;点击带横线的绿色按钮缩小地图;或者点击绿色箭头查看邻近地区的地图。


METAR-TAF: